sensor_id;sensor_type;location;lat;lon;timestamp;temperature;humidity
51902;DHT22;37929;53.218;6.548;2023-06-04T00:00:58;14.30;99.90
51902;DHT22;37929;53.218;6.548;2023-06-04T00:03:24;14.30;99.90
51902;DHT22;37929;53.218;6.548;2023-06-04T00:05:52;14.30;99.90
51902;DHT22;37929;53.218;6.548;2023-06-04T00:08:18;14.30;99.90
51902;DHT22;37929;53.218;6.548;2023-06-04T00:10:46;14.30;99.90
51902;DHT22;37929;53.218;6.548;2023-06-04T00:13:12;14.30;99.90
51902;DHT22;37929;53.218;6.548;2023-06-04T00:15:38;14.20;99.90
51902;DHT22;37929;53.218;6.548;2023-06-04T00:18:04;14.20;99.90
51902;DHT22;37929;53.218;6.548;2023-06-04T00:20:30;14.20;99.90
51902;DHT22;37929;53.218;6.548;2023-06-04T00:22:56;14.20;99.90
51902;DHT22;37929;53.218;6.548;2023-06-04T00:25:22;14.20;99.90
51902;DHT22;37929;53.218;6.548;2023-06-04T00:27:54;14.10;99.90
51902;DHT22;37929;53.218;6.548;2023-06-04T00:30:20;14.10;99.90
51902;DHT22;37929;53.218;6.548;2023-06-04T00:32:48;14.10;99.90
51902;DHT22;37929;53.218;6.548;2023-06-04T00:35:14;14.10;99.90
51902;DHT22;37929;53.218;6.548;2023-06-04T00:37:46;14.00;99.90
51902;DHT22;37929;53.218;6.548;2023-06-04T00:40:12;14.00;99.90
51902;DHT22;37929;53.218;6.548;2023-06-04T00:42:38;14.10;99.90
51902;DHT22;37929;53.218;6.548;2023-06-04T00:45:05;14.00;99.90
51902;DHT22;37929;53.218;6.548;2023-06-04T00:47:38;14.00;99.90
51902;DHT22;37929;53.218;6.548;2023-06-04T00:50:07;14.00;99.90
51902;DHT22;37929;53.218;6.548;2023-06-04T00:52:51;13.90;99.90
51902;DHT22;37929;53.218;6.548;2023-06-04T00:55:20;13.00;99.90
51902;DHT22;37929;53.218;6.548;2023-06-04T00:57:48;13.90;99.90
51902;DHT22;37929;53.218;6.548;2023-06-04T01:00:14;13.90;99.90
51902;DHT22;37929;53.218;6.548;2023-06-04T01:02:41;13.90;99.90
51902;DHT22;37929;53.218;6.548;2023-06-04T01:05:16;13.90;99.90
51902;DHT22;37929;53.218;6.548;2023-06-04T01:07:48;13.80;99.90
51902;DHT22;37929;53.218;6.548;2023-06-04T01:13:01;13.80;99.90
51902;DHT22;37929;53.218;6.548;2023-06-04T01:15:27;13.80;99.90
51902;DHT22;37929;53.218;6.548;2023-06-04T01:18:00;13.70;99.90
51902;DHT22;37929;53.218;6.548;2023-06-04T01:20:43;13.70;99.90
51902;DHT22;37929;53.218;6.548;2023-06-04T01:25:45;13.60;99.90
51902;DHT22;37929;53.218;6.548;2023-06-04T01:28:35;13.60;99.90
51902;DHT22;37929;53.218;6.548;2023-06-04T01:31:01;13.60;99.90
51902;DHT22;37929;53.218;6.548;2023-06-04T01:33:28;13.60;99.90
51902;DHT22;37929;53.218;6.548;2023-06-04T01:35:57;13.60;99.90
51902;DHT22;37929;53.218;6.548;2023-06-04T01:38:31;13.00;99.90
51902;DHT22;37929;53.218;6.548;2023-06-04T01:41:00;13.90;99.90
51902;DHT22;37929;53.218;6.548;2023-06-04T01:43:32;13.50;99.90
51902;DHT22;37929;53.218;6.548;2023-06-04T01:46:09;13.40;99.90
51902;DHT22;37929;53.218;6.548;2023-06-04T01:48:35;13.40;99.90
51902;DHT22;37929;53.218;6.548;2023-06-04T01:51:08;13.30;99.90
51902;DHT22;37929;53.218;6.548;2023-06-04T01:53:47;13.30;99.90
51902;DHT22;37929;53.218;6.548;2023-06-04T01:56:13;13.30;99.90
51902;DHT22;37929;53.218;6.548;2023-06-04T01:58:43;13.10;99.90
51902;DHT22;37929;53.218;6.548;2023-06-04T02:01:10;13.40;99.90
51902;DHT22;37929;53.218;6.548;2023-06-04T02:03:36;13.30;99.90
51902;DHT22;37929;53.218;6.548;2023-06-04T02:06:04;13.30;99.90
51902;DHT22;37929;53.218;6.548;2023-06-04T02:08:34;13.30;99.90
51902;DHT22;37929;53.218;6.548;2023-06-04T02:11:01;13.30;99.90
51902;DHT22;37929;53.218;6.548;2023-06-04T02:13:34;13.20;99.90
51902;DHT22;37929;53.218;6.548;2023-06-04T02:16:00;13.20;99.90
51902;DHT22;37929;53.218;6.548;2023-06-04T02:18:26;13.20;99.90
51902;DHT22;37929;53.218;6.548;2023-06-04T02:21:05;13.20;99.90
51902;DHT22;37929;53.218;6.548;2023-06-04T02:23:31;13.20;99.90
51902;DHT22;37929;53.218;6.548;2023-06-04T02:26:00;13.20;99.90
51902;DHT22;37929;53.218;6.548;2023-06-04T02:28:26;13.20;99.90
51902;DHT22;37929;53.218;6.548;2023-06-04T02:31:00;13.20;99.90
51902;DHT22;37929;53.218;6.548;2023-06-04T02:33:34;13.20;99.90
51902;DHT22;37929;53.218;6.548;2023-06-04T02:36:00;13.20;99.90
51902;DHT22;37929;53.218;6.548;2023-06-04T02:38:35;13.20;99.90
51902;DHT22;37929;53.218;6.548;2023-06-04T02:41:16;12.60;99.90
51902;DHT22;37929;53.218;6.548;2023-06-04T02:43:42;13.20;99.90
51902;DHT22;37929;53.218;6.548;2023-06-04T02:46:14;13.20;99.90
51902;DHT22;37929;53.218;6.548;2023-06-04T02:48:46;13.20;99.90
51902;DHT22;37929;53.218;6.548;2023-06-04T02:51:12;13.20;99.90
51902;DHT22;37929;53.218;6.548;2023-06-04T02:53:48;13.10;99.90
51902;DHT22;37929;53.218;6.548;2023-06-04T02:56:14;12.70;99.90
51902;DHT22;37929;53.218;6.548;2023-06-04T02:58:54;13.10;99.90
51902;DHT22;37929;53.218;6.548;2023-06-04T03:01:25;13.00;99.90
51902;DHT22;37929;53.218;6.548;2023-06-04T03:03:52;13.00;99.90
51902;DHT22;37929;53.218;6.548;2023-06-04T03:06:20;13.00;99.90
51902;DHT22;37929;53.218;6.548;2023-06-04T03:08:50;13.00;99.90
51902;DHT22;37929;53.218;6.548;2023-06-04T03:11:19;13.00;99.90
51902;DHT22;37929;53.218;6.548;2023-06-04T03:13:57;13.00;99.90
51902;DHT22;37929;53.218;6.548;2023-06-04T03:16:23;13.00;99.90
51902;DHT22;37929;53.218;6.548;2023-06-04T03:18:49;12.90;99.90
51902;DHT22;37929;53.218;6.548;2023-06-04T03:21:18;12.90;99.90
51902;DHT22;37929;53.218;6.548;2023-06-04T03:23:44;12.90;99.90
51902;DHT22;37929;53.218;6.548;2023-06-04T03:26:13;12.90;99.90
51902;DHT22;37929;53.218;6.548;2023-06-04T03:28:52;12.90;99.90
51902;DHT22;37929;53.218;6.548;2023-06-04T03:31:18;12.90;99.90
51902;DHT22;37929;53.218;6.548;2023-06-04T03:33:46;12.90;99.90
51902;DHT22;37929;53.218;6.548;2023-06-04T03:36:12;13.20;99.90
51902;DHT22;37929;53.218;6.548;2023-06-04T03:38:38;12.90;99.90
51902;DHT22;37929;53.218;6.548;2023-06-04T03:41:09;12.80;99.90
51902;DHT22;37929;53.218;6.548;2023-06-04T03:43:43;12.80;99.90
51902;DHT22;37929;53.218;6.548;2023-06-04T03:46:09;12.80;99.90
51902;DHT22;37929;53.218;6.548;2023-06-04T03:48:35;12.80;99.90
51902;DHT22;37929;53.218;6.548;2023-06-04T03:51:11;12.80;99.90
51902;DHT22;37929;53.218;6.548;2023-06-04T03:53:41;12.10;99.90
51902;DHT22;37929;53.218;6.548;2023-06-04T03:56:09;13.30;99.90
51902;DHT22;37929;53.218;6.548;2023-06-04T03:58:35;12.80;99.90
51902;DHT22;37929;53.218;6.548;2023-06-04T04:01:02;12.30;99.90
51902;DHT22;37929;53.218;6.548;2023-06-04T04:03:35;12.50;99.90
51902;DHT22;37929;53.218;6.548;2023-06-04T04:06:04;12.70;99.90
51902;DHT22;37929;53.218;6.548;2023-06-04T04:08:35;12.90;99.90
51902;DHT22;37929;53.218;6.548;2023-06-04T04:11:01;13.20;99.90
51902;DHT22;37929;53.218;6.548;2023-06-04T04:13:27;12.30;99.90
51902;DHT22;37929;53.218;6.548;2023-06-04T04:15:52;12.90;99.90
51902;DHT22;37929;53.218;6.548;2023-06-04T04:18:22;12.70;99.90
51902;DHT22;37929;53.218;6.548;2023-06-04T04:20:48;12.70;99.90
51902;DHT22;37929;53.218;6.548;2023-06-04T04:23:14;12.70;99.90
51902;DHT22;37929;53.218;6.548;2023-06-04T04:25:40;12.70;99.90
51902;DHT22;37929;53.218;6.548;2023-06-04T04:28:07;12.70;99.90
51902;DHT22;37929;53.218;6.548;2023-06-04T04:30:34;12.70;99.90
51902;DHT22;37929;53.218;6.548;2023-06-04T04:33:01;12.70;99.90
51902;DHT22;37929;53.218;6.548;2023-06-04T04:35:27;12.60;99.90
51902;DHT22;37929;53.218;6.548;2023-06-04T04:37:54;12.80;99.90
51902;DHT22;37929;53.218;6.548;2023-06-04T04:40:24;12.60;99.90
51902;DHT22;37929;53.218;6.548;2023-06-04T04:42:51;12.60;99.90
51902;DHT22;37929;53.218;6.548;2023-06-04T04:45:17;12.60;99.90
51902;DHT22;37929;53.218;6.548;2023-06-04T04:47:43;12.60;99.90
51902;DHT22;37929;53.218;6.548;2023-06-04T04:50:10;12.60;99.90
51902;DHT22;37929;53.218;6.548;2023-06-04T04:52:36;12.60;99.90
51902;DHT22;37929;53.218;6.548;2023-06-04T04:55:02;12.60;99.90
51902;DHT22;37929;53.218;6.548;2023-06-04T04:57:28;12.60;99.90
51902;DHT22;37929;53.218;6.548;2023-06-04T04:59:54;12.60;99.90
51902;DHT22;37929;53.218;6.548;2023-06-04T05:02:20;12.60;99.90
51902;DHT22;37929;53.218;6.548;2023-06-04T05:04:45;12.60;99.90
51902;DHT22;37929;53.218;6.548;2023-06-04T05:07:11;12.70;99.90
51902;DHT22;37929;53.218;6.548;2023-06-04T05:09:37;12.70;99.90
51902;DHT22;37929;53.218;6.548;2023-06-04T05:12:03;12.70;99.90
51902;DHT22;37929;53.218;6.548;2023-06-04T05:14:29;12.70;99.90
51902;DHT22;37929;53.218;6.548;2023-06-04T05:16:58;12.70;99.90
51902;DHT22;37929;53.218;6.548;2023-06-04T05:19:24;12.70;99.90
51902;DHT22;37929;53.218;6.548;2023-06-04T05:21:50;12.70;99.90
51902;DHT22;37929;53.218;6.548;2023-06-04T05:24:16;12.70;99.90
51902;DHT22;37929;53.218;6.548;2023-06-04T05:26:47;12.80;99.90
51902;DHT22;37929;53.218;6.548;2023-06-04T05:29:16;13.20;99.90
51902;DHT22;37929;53.218;6.548;2023-06-04T05:31:42;12.80;99.90
51902;DHT22;37929;53.218;6.548;2023-06-04T05:34:08;12.90;99.90
51902;DHT22;37929;53.218;6.548;2023-06-04T05:36:49;12.90;99.90
51902;DHT22;37929;53.218;6.548;2023-06-04T05:39:15;13.00;99.90
51902;DHT22;37929;53.218;6.548;2023-06-04T05:41:44;12.30;99.90
51902;DHT22;37929;53.218;6.548;2023-06-04T05:44:12;13.00;99.90
51902;DHT22;37929;53.218;6.548;2023-06-04T05:46:44;13.60;99.90
51902;DHT22;37929;53.218;6.548;2023-06-04T05:49:13;13.70;99.90
51902;DHT22;37929;53.218;6.548;2023-06-04T05:51:39;13.00;99.90
51902;DHT22;37929;53.218;6.548;2023-06-04T05:54:11;13.00;99.90
51902;DHT22;37929;53.218;6.548;2023-06-04T05:56:37;13.00;99.90
51902;DHT22;37929;53.218;6.548;2023-06-04T05:59:05;13.10;99.90
51902;DHT22;37929;53.218;6.548;2023-06-04T06:01:33;13.10;99.90
51902;DHT22;37929;53.218;6.548;2023-06-04T06:04:01;13.10;99.90
51902;DHT22;37929;53.218;6.548;2023-06-04T06:06:39;13.20;99.90
51902;DHT22;37929;53.218;6.548;2023-06-04T06:09:05;13.20;99.90
51902;DHT22;37929;53.218;6.548;2023-06-04T06:11:31;13.20;99.90
51902;DHT22;37929;53.218;6.548;2023-06-04T06:14:00;13.20;99.90
51902;DHT22;37929;53.218;6.548;2023-06-04T06:16:26;13.30;99.90
51902;DHT22;37929;53.218;6.548;2023-06-04T06:18:54;13.30;99.90
51902;DHT22;37929;53.218;6.548;2023-06-04T06:21:24;13.30;99.90
51902;DHT22;37929;53.218;6.548;2023-06-04T06:23:53;13.10;99.90
51902;DHT22;37929;53.218;6.548;2023-06-04T06:26:19;13.30;99.90
51902;DHT22;37929;53.218;6.548;2023-06-04T06:28:45;13.40;99.90
51902;DHT22;37929;53.218;6.548;2023-06-04T06:31:21;13.40;99.90
51902;DHT22;37929;53.218;6.548;2023-06-04T06:34:00;13.50;99.90
51902;DHT22;37929;53.218;6.548;2023-06-04T06:36:26;13.50;99.90
51902;DHT22;37929;53.218;6.548;2023-06-04T06:38:54;13.50;99.90
51902;DHT22;37929;53.218;6.548;2023-06-04T06:41:23;13.50;99.90
51902;DHT22;37929;53.218;6.548;2023-06-04T06:43:48;13.50;99.90
51902;DHT22;37929;53.218;6.548;2023-06-04T06:46:14;13.60;99.90
51902;DHT22;37929;53.218;6.548;2023-06-04T06:48:40;13.60;99.90
51902;DHT22;37929;53.218;6.548;2023-06-04T06:51:10;13.60;99.90
51902;DHT22;37929;53.218;6.548;2023-06-04T06:53:38;13.70;99.90
51902;DHT22;37929;53.218;6.548;2023-06-04T06:56:05;13.70;99.90
51902;DHT22;37929;53.218;6.548;2023-06-04T06:58:31;13.70;99.90
51902;DHT22;37929;53.218;6.548;2023-06-04T07:01:00;13.70;99.90
51902;DHT22;37929;53.218;6.548;2023-06-04T07:03:26;13.80;99.90
51902;DHT22;37929;53.218;6.548;2023-06-04T07:05:53;13.80;99.90
51902;DHT22;37929;53.218;6.548;2023-06-04T07:08:19;13.80;99.90
51902;DHT22;37929;53.218;6.548;2023-06-04T07:10:51;13.80;99.90
51902;DHT22;37929;53.218;6.548;2023-06-04T07:13:39;13.50;99.90
51902;DHT22;37929;53.218;6.548;2023-06-04T07:16:08;13.90;99.90
51902;DHT22;37929;53.218;6.548;2023-06-04T07:18:33;14.00;99.90
51902;DHT22;37929;53.218;6.548;2023-06-04T07:21:15;14.10;99.90
51902;DHT22;37929;53.218;6.548;2023-06-04T07:23:43;14.20;99.90
51902;DHT22;37929;53.218;6.548;2023-06-04T07:26:12;14.20;99.90
51902;DHT22;37929;53.218;6.548;2023-06-04T07:28:38;14.20;99.90
51902;DHT22;37929;53.218;6.548;2023-06-04T07:31:04;14.30;99.90
51902;DHT22;37929;53.218;6.548;2023-06-04T07:33:30;14.30;99.90
51902;DHT22;37929;53.218;6.548;2023-06-04T07:35:56;14.50;99.90
51902;DHT22;37929;53.218;6.548;2023-06-04T07:38:21;14.50;99.90
51902;DHT22;37929;53.218;6.548;2023-06-04T07:40:50;14.50;99.90
51902;DHT22;37929;53.218;6.548;2023-06-04T07:43:18;14.60;99.90
51902;DHT22;37929;53.218;6.548;2023-06-04T07:45:44;14.60;99.90
51902;DHT22;37929;53.218;6.548;2023-06-04T07:48:11;14.70;99.90
51902;DHT22;37929;53.218;6.548;2023-06-04T07:50:37;14.70;99.90
51902;DHT22;37929;53.218;6.548;2023-06-04T07:53:17;14.80;99.90
51902;DHT22;37929;53.218;6.548;2023-06-04T07:55:54;14.80;99.90
51902;DHT22;37929;53.218;6.548;2023-06-04T07:58:23;14.90;99.90
51902;DHT22;37929;53.218;6.548;2023-06-04T08:00:49;15.00;99.90
51902;DHT22;37929;53.218;6.548;2023-06-04T08:03:15;15.10;99.90
51902;DHT22;37929;53.218;6.548;2023-06-04T08:05:41;15.10;99.90
51902;DHT22;37929;53.218;6.548;2023-06-04T08:08:07;15.20;99.90
51902;DHT22;37929;53.218;6.548;2023-06-04T08:10:33;15.30;99.90
51902;DHT22;37929;53.218;6.548;2023-06-04T08:12:58;15.40;99.90
51902;DHT22;37929;53.218;6.548;2023-06-04T08:15:25;15.50;99.90
51902;DHT22;37929;53.218;6.548;2023-06-04T08:17:59;15.60;99.90
51902;DHT22;37929;53.218;6.548;2023-06-04T08:20:25;15.60;99.90
51902;DHT22;37929;53.218;6.548;2023-06-04T08:23:08;15.70;99.90
51902;DHT22;37929;53.218;6.548;2023-06-04T08:25:34;16.30;99.90
51902;DHT22;37929;53.218;6.548;2023-06-04T08:28:00;15.90;99.90
51902;DHT22;37929;53.218;6.548;2023-06-04T08:30:26;16.00;99.90
51902;DHT22;37929;53.218;6.548;2023-06-04T08:32:53;16.00;99.90
51902;DHT22;37929;53.218;6.548;2023-06-04T08:35:19;16.10;99.90
51902;DHT22;37929;53.218;6.548;2023-06-04T08:37:45;16.20;99.90
51902;DHT22;37929;53.218;6.548;2023-06-04T08:40:11;16.30;99.90
51902;DHT22;37929;53.218;6.548;2023-06-04T08:42:41;16.40;99.90
51902;DHT22;37929;53.218;6.548;2023-06-04T08:45:12;16.50;99.90
51902;DHT22;37929;53.218;6.548;2023-06-04T08:47:52;16.50;99.90
51902;DHT22;37929;53.218;6.548;2023-06-04T08:50:23;16.60;99.90
51902;DHT22;37929;53.218;6.548;2023-06-04T08:52:54;16.60;99.90
51902;DHT22;37929;53.218;6.548;2023-06-04T08:55:26;16.70;99.90
51902;DHT22;37929;53.218;6.548;2023-06-04T08:58:05;16.80;99.90
51902;DHT22;37929;53.218;6.548;2023-06-04T09:00:39;16.80;99.90
51902;DHT22;37929;53.218;6.548;2023-06-04T09:03:08;16.90;99.90
51902;DHT22;37929;53.218;6.548;2023-06-04T09:05:37;16.90;99.90
51902;DHT22;37929;53.218;6.548;2023-06-04T09:08:05;16.90;99.90
51902;DHT22;37929;53.218;6.548;2023-06-04T09:10:33;16.90;99.90
51902;DHT22;37929;53.218;6.548;2023-06-04T09:13:02;16.90;99.90
51902;DHT22;37929;53.218;6.548;2023-06-04T09:15:31;16.90;99.90
51902;DHT22;37929;53.218;6.548;2023-06-04T09:18:00;16.90;99.90
51902;DHT22;37929;53.218;6.548;2023-06-04T09:20:31;16.90;99.90
51902;DHT22;37929;53.218;6.548;2023-06-04T09:23:00;16.90;99.90
51902;DHT22;37929;53.218;6.548;2023-06-04T09:25:48;16.90;99.90
51902;DHT22;37929;53.218;6.548;2023-06-04T09:28:23;16.90;99.90
51902;DHT22;37929;53.218;6.548;2023-06-04T09:30:55;16.90;99.90
51902;DHT22;37929;53.218;6.548;2023-06-04T09:33:21;17.00;99.90
51902;DHT22;37929;53.218;6.548;2023-06-04T09:35:54;17.00;99.90
51902;DHT22;37929;53.218;6.548;2023-06-04T09:38:22;17.00;99.90
51902;DHT22;37929;53.218;6.548;2023-06-04T09:40:48;17.00;99.90
51902;DHT22;37929;53.218;6.548;2023-06-04T09:43:22;17.00;99.90
51902;DHT22;37929;53.218;6.548;2023-06-04T09:45:49;17.10;99.90
51902;DHT22;37929;53.218;6.548;2023-06-04T09:48:21;17.10;99.90
51902;DHT22;37929;53.218;6.548;2023-06-04T09:50:48;17.10;99.90
51902;DHT22;37929;53.218;6.548;2023-06-04T09:53:20;17.10;99.90
51902;DHT22;37929;53.218;6.548;2023-06-04T09:55:59;17.10;99.90
51902;DHT22;37929;53.218;6.548;2023-06-04T09:58:32;17.10;99.90
51902;DHT22;37929;53.218;6.548;2023-06-04T10:01:00;17.60;99.90
51902;DHT22;37929;53.218;6.548;2023-06-04T10:03:31;17.10;99.90
51902;DHT22;37929;53.218;6.548;2023-06-04T10:06:07;17.10;99.90
51902;DHT22;37929;53.218;6.548;2023-06-04T10:08:34;17.10;99.90
51902;DHT22;37929;53.218;6.548;2023-06-04T10:11:12;17.20;99.90
51902;DHT22;37929;53.218;6.548;2023-06-04T10:13:53;17.60;99.90
51902;DHT22;37929;53.218;6.548;2023-06-04T10:16:39;17.00;99.90
51902;DHT22;37929;53.218;6.548;2023-06-04T10:19:34;17.10;99.90
51902;DHT22;37929;53.218;6.548;2023-06-04T10:22:09;16.90;99.90
51902;DHT22;37929;53.218;6.548;2023-06-04T10:24:46;17.30;99.90
51902;DHT22;37929;53.218;6.548;2023-06-04T10:27:25;17.60;99.90
51902;DHT22;37929;53.218;6.548;2023-06-04T10:30:00;17.30;99.90
51902;DHT22;37929;53.218;6.548;2023-06-04T10:32:33;17.40;99.90
51902;DHT22;37929;53.218;6.548;2023-06-04T10:35:09;17.20;99.90
51902;DHT22;37929;53.218;6.548;2023-06-04T10:37:37;17.50;99.90
51902;DHT22;37929;53.218;6.548;2023-06-04T10:40:04;17.50;99.90
51902;DHT22;37929;53.218;6.548;2023-06-04T10:42:39;17.60;99.90
51902;DHT22;37929;53.218;6.548;2023-06-04T10:45:08;17.70;99.90
51902;DHT22;37929;53.218;6.548;2023-06-04T10:47:38;17.70;99.90
51902;DHT22;37929;53.218;6.548;2023-06-04T10:50:13;17.80;99.90
51902;DHT22;37929;53.218;6.548;2023-06-04T10:52:54;17.90;99.90
51902;DHT22;37929;53.218;6.548;2023-06-04T10:55:21;17.80;99.90
51902;DHT22;37929;53.218;6.548;2023-06-04T10:58:08;17.90;99.90
51902;DHT22;37929;53.218;6.548;2023-06-04T11:00:38;18.00;99.90
51902;DHT22;37929;53.218;6.548;2023-06-04T11:03:09;18.00;99.90
51902;DHT22;37929;53.218;6.548;2023-06-04T11:05:43;18.00;99.90
51902;DHT22;37929;53.218;6.548;2023-06-04T11:08:32;18.10;99.90
51902;DHT22;37929;53.218;6.548;2023-06-04T11:10:58;18.20;99.90
51902;DHT22;37929;53.218;6.548;2023-06-04T11:13:27;18.20;99.90
51902;DHT22;37929;53.218;6.548;2023-06-04T11:15:58;18.20;99.90
51902;DHT22;37929;53.218;6.548;2023-06-04T11:19:14;18.40;99.90
51902;DHT22;37929;53.218;6.548;2023-06-04T11:21:45;18.30;99.90
51902;DHT22;37929;53.218;6.548;2023-06-04T11:24:20;18.30;99.90
51902;DHT22;37929;53.218;6.548;2023-06-04T11:26:46;18.40;99.90
51902;DHT22;37929;53.218;6.548;2023-06-04T11:29:19;18.50;99.90
51902;DHT22;37929;53.218;6.548;2023-06-04T11:31:53;18.50;99.90
51902;DHT22;37929;53.218;6.548;2023-06-04T11:34:23;18.70;99.90
51902;DHT22;37929;53.218;6.548;2023-06-04T11:37:13;18.80;99.90
51902;DHT22;37929;53.218;6.548;2023-06-04T11:40:14;18.90;99.90
51902;DHT22;37929;53.218;6.548;2023-06-04T11:42:49;19.00;99.90
51902;DHT22;37929;53.218;6.548;2023-06-04T11:45:40;19.20;99.90
51902;DHT22;37929;53.218;6.548;2023-06-04T11:48:13;19.30;99.90
51902;DHT22;37929;53.218;6.548;2023-06-04T11:50:39;19.40;99.90
51902;DHT22;37929;53.218;6.548;2023-06-04T11:53:09;19.50;99.90
51902;DHT22;37929;53.218;6.548;2023-06-04T11:55:46;19.40;99.90
51902;DHT22;37929;53.218;6.548;2023-06-04T11:58:15;19.70;99.90
51902;DHT22;37929;53.218;6.548;2023-06-04T12:03:37;19.90;99.90
51902;DHT22;37929;53.218;6.548;2023-06-04T12:06:14;20.00;99.90
51902;DHT22;37929;53.218;6.548;2023-06-04T12:09:03;20.10;99.90
51902;DHT22;37929;53.218;6.548;2023-06-04T12:11:35;20.10;99.90
51902;DHT22;37929;53.218;6.548;2023-06-04T12:14:15;20.30;99.90
51902;DHT22;37929;53.218;6.548;2023-06-04T12:17:09;20.50;99.90
51902;DHT22;37929;53.218;6.548;2023-06-04T12:20:08;20.30;99.90
51902;DHT22;37929;53.218;6.548;2023-06-04T12:23:09;20.40;99.90
51902;DHT22;37929;53.218;6.548;2023-06-04T12:25:52;20.50;99.90
51902;DHT22;37929;53.218;6.548;2023-06-04T12:28:27;20.50;99.90
51902;DHT22;37929;53.218;6.548;2023-06-04T12:31:15;20.40;99.90
51902;DHT22;37929;53.218;6.548;2023-06-04T12:33:42;20.60;99.90
51902;DHT22;37929;53.218;6.548;2023-06-04T12:36:14;20.70;99.90
51902;DHT22;37929;53.218;6.548;2023-06-04T12:38:42;20.70;99.90
51902;DHT22;37929;53.218;6.548;2023-06-04T12:41:11;20.70;99.90
51902;DHT22;37929;53.218;6.548;2023-06-04T12:43:39;21.00;99.90
51902;DHT22;37929;53.218;6.548;2023-06-04T12:46:32;20.80;99.90
51902;DHT22;37929;53.218;6.548;2023-06-04T12:49:04;20.90;99.90
51902;DHT22;37929;53.218;6.548;2023-06-04T12:51:41;21.00;99.90
51902;DHT22;37929;53.218;6.548;2023-06-04T12:54:17;21.00;99.90
51902;DHT22;37929;53.218;6.548;2023-06-04T12:56:52;21.00;99.90
51902;DHT22;37929;53.218;6.548;2023-06-04T12:59:24;21.00;99.90
51902;DHT22;37929;53.218;6.548;2023-06-04T13:01:51;21.10;99.90
51902;DHT22;37929;53.218;6.548;2023-06-04T13:04:17;21.10;99.90
51902;DHT22;37929;53.218;6.548;2023-06-04T13:06:43;21.10;99.90
51902;DHT22;37929;53.218;6.548;2023-06-04T13:09:11;21.10;99.90
51902;DHT22;37929;53.218;6.548;2023-06-04T13:11:43;21.10;99.90
51902;DHT22;37929;53.218;6.548;2023-06-04T13:14:13;21.10;99.90
51902;DHT22;37929;53.218;6.548;2023-06-04T13:16:39;21.20;99.90
51902;DHT22;37929;53.218;6.548;2023-06-04T13:19:08;21.10;99.90
51902;DHT22;37929;53.218;6.548;2023-06-04T13:21:37;21.00;99.90
51902;DHT22;37929;53.218;6.548;2023-06-04T13:24:03;21.10;99.90
51902;DHT22;37929;53.218;6.548;2023-06-04T13:26:29;21.10;99.90
51902;DHT22;37929;53.218;6.548;2023-06-04T13:29:00;21.10;99.90
51902;DHT22;37929;53.218;6.548;2023-06-04T13:31:26;21.00;99.90
51902;DHT22;37929;53.218;6.548;2023-06-04T13:33:52;20.90;99.90
51902;DHT22;37929;53.218;6.548;2023-06-04T13:36:18;20.80;99.90
51902;DHT22;37929;53.218;6.548;2023-06-04T13:38:44;20.80;99.90
51902;DHT22;37929;53.218;6.548;2023-06-04T13:41:13;20.70;99.90
51902;DHT22;37929;53.218;6.548;2023-06-04T13:43:39;20.60;99.90
51902;DHT22;37929;53.218;6.548;2023-06-04T13:46:05;20.60;99.90
51902;DHT22;37929;53.218;6.548;2023-06-04T13:48:34;20.50;99.90
51902;DHT22;37929;53.218;6.548;2023-06-04T13:51:00;20.40;99.90
51902;DHT22;37929;53.218;6.548;2023-06-04T13:53:29;20.40;99.90
51902;DHT22;37929;53.218;6.548;2023-06-04T13:55:58;20.30;99.90
51902;DHT22;37929;53.218;6.548;2023-06-04T13:58:25;20.80;99.90
51902;DHT22;37929;53.218;6.548;2023-06-04T14:00:51;20.20;99.90
51902;DHT22;37929;53.218;6.548;2023-06-04T14:03:17;20.10;99.90
51902;DHT22;37929;53.218;6.548;2023-06-04T14:05:52;20.10;99.90
51902;DHT22;37929;53.218;6.548;2023-06-04T14:08:18;20.10;99.90
51902;DHT22;37929;53.218;6.548;2023-06-04T14:10:47;19.90;99.90
51902;DHT22;37929;53.218;6.548;2023-06-04T14:13:19;19.90;99.90
51902;DHT22;37929;53.218;6.548;2023-06-04T14:15:47;19.70;99.90
51902;DHT22;37929;53.218;6.548;2023-06-04T14:18:13;19.80;99.90
51902;DHT22;37929;53.218;6.548;2023-06-04T14:20:39;19.80;99.90
51902;DHT22;37929;53.218;6.548;2023-06-04T14:23:05;19.80;99.90
51902;DHT22;37929;53.218;6.548;2023-06-04T14:25:31;19.80;99.90
51902;DHT22;37929;53.218;6.548;2023-06-04T14:28:00;19.70;99.90
51902;DHT22;37929;53.218;6.548;2023-06-04T14:30:29;19.50;99.90
51902;DHT22;37929;53.218;6.548;2023-06-04T14:32:58;19.60;99.90
51902;DHT22;37929;53.218;6.548;2023-06-04T14:35:23;19.50;99.90
51902;DHT22;37929;53.218;6.548;2023-06-04T14:37:51;19.50;99.90
51902;DHT22;37929;53.218;6.548;2023-06-04T14:40:17;19.70;99.90
51902;DHT22;37929;53.218;6.548;2023-06-04T14:42:46;19.50;99.90
51902;DHT22;37929;53.218;6.548;2023-06-04T14:45:24;19.50;99.90
51902;DHT22;37929;53.218;6.548;2023-06-04T14:47:53;19.40;99.90
51902;DHT22;37929;53.218;6.548;2023-06-04T14:50:19;19.40;99.90
51902;DHT22;37929;53.218;6.548;2023-06-04T14:52:45;19.40;99.90
51902;DHT22;37929;53.218;6.548;2023-06-04T14:55:11;19.40;99.90
51902;DHT22;37929;53.218;6.548;2023-06-04T14:57:40;19.30;99.90
51902;DHT22;37929;53.218;6.548;2023-06-04T15:00:12;19.30;99.90
51902;DHT22;37929;53.218;6.548;2023-06-04T15:02:38;19.20;99.90
51902;DHT22;37929;53.218;6.548;2023-06-04T15:05:04;19.10;99.90
51902;DHT22;37929;53.218;6.548;2023-06-04T15:07:33;19.10;99.90
51902;DHT22;37929;53.218;6.548;2023-06-04T15:09:58;18.90;99.90
51902;DHT22;37929;53.218;6.548;2023-06-04T15:12:30;19.00;99.90
51902;DHT22;37929;53.218;6.548;2023-06-04T15:14:55;19.00;99.90
51902;DHT22;37929;53.218;6.548;2023-06-04T15:17:21;19.00;99.90
51902;DHT22;37929;53.218;6.548;2023-06-04T15:19:47;18.90;99.90
51902;DHT22;37929;53.218;6.548;2023-06-04T15:22:12;18.90;99.90
51902;DHT22;37929;53.218;6.548;2023-06-04T15:24:38;18.90;99.90
51902;DHT22;37929;53.218;6.548;2023-06-04T15:27:04;18.90;99.90
51902;DHT22;37929;53.218;6.548;2023-06-04T15:29:33;18.90;99.90
51902;DHT22;37929;53.218;6.548;2023-06-04T15:32:01;18.80;99.90
51902;DHT22;37929;53.218;6.548;2023-06-04T15:34:26;18.80;99.90
51902;DHT22;37929;53.218;6.548;2023-06-04T15:36:52;18.70;99.90
51902;DHT22;37929;53.218;6.548;2023-06-04T15:39:18;18.70;99.90
51902;DHT22;37929;53.218;6.548;2023-06-04T15:41:47;18.40;99.90
51902;DHT22;37929;53.218;6.548;2023-06-04T15:44:13;18.60;99.90
51902;DHT22;37929;53.218;6.548;2023-06-04T15:46:41;18.60;99.90
51902;DHT22;37929;53.218;6.548;2023-06-04T15:49:07;18.50;99.90
51902;DHT22;37929;53.218;6.548;2023-06-04T15:51:38;18.50;99.90
51902;DHT22;37929;53.218;6.548;2023-06-04T15:54:07;18.50;99.90
51902;DHT22;37929;53.218;6.548;2023-06-04T15:56:39;18.40;99.90